sensor_id;sensor_type;location;lat;lon;timestamp;pressure;altitude;pressure_sealevel;temperature;humidity
60061;BME280;45933;51.336;12.612;2023-01-25T00:00:26;101973.59;;;2.84;69.45
60061;BME280;45933;51.336;12.612;2023-01-25T00:02:51;101966.78;;;2.85;69.60
60061;BME280;45933;51.336;12.612;2023-01-25T00:05:17;101975.41;;;2.85;69.87
60061;BME280;45933;51.336;12.612;2023-01-25T00:07:42;101973.69;;;2.86;69.66
60061;BME280;45933;51.336;12.612;2023-01-25T00:10:09;101970.94;;;2.83;69.66
60061;BME280;45933;51.336;12.612;2023-01-25T00:12:37;101971.94;;;2.85;69.57
60061;BME280;45933;51.336;12.612;2023-01-25T00:15:02;101968.38;;;2.83;69.67
60061;BME280;45933;51.336;12.612;2023-01-25T00:17:28;101964.97;;;2.84;69.65
60061;BME280;45933;51.336;12.612;2023-01-25T00:19:53;101966.53;;;2.80;69.31
60061;BME280;45933;51.336;12.612;2023-01-25T00:22:21;101963.84;;;2.79;69.41
60061;BME280;45933;51.336;12.612;2023-01-25T00:24:47;101968.28;;;2.81;69.51
60061;BME280;45933;51.336;12.612;2023-01-25T00:27:12;101968.28;;;2.81;69.38
60061;BME280;45933;51.336;12.612;2023-01-25T00:29:37;101965.72;;;2.81;69.63
60061;BME280;45933;51.336;12.612;2023-01-25T00:32:37;101955.81;;;2.89;69.55
60061;BME280;45933;51.336;12.612;2023-01-25T00:35:09;101958.94;;;2.83;69.54
60061;BME280;45933;51.336;12.612;2023-01-25T00:37:37;101957.19;;;2.82;69.66
60061;BME280;45933;51.336;12.612;2023-01-25T00:40:04;101959.75;;;2.82;69.57
60061;BME280;45933;51.336;12.612;2023-01-25T00:42:29;101956.38;;;2.83;69.51
60061;BME280;45933;51.336;12.612;2023-01-25T00:44:55;101962.41;;;2.84;69.45
60061;BME280;45933;51.336;12.612;2023-01-25T00:47:20;101962.41;;;2.84;69.51
60061;BME280;45933;51.336;12.612;2023-01-25T00:49:46;101963.28;;;2.84;69.47
60061;BME280;45933;51.336;12.612;2023-01-25T00:52:12;101963.22;;;2.83;69.27
60061;BME280;45933;51.336;12.612;2023-01-25T00:54:37;101964.03;;;2.82;69.48
60061;BME280;45933;51.336;12.612;2023-01-25T00:57:03;101960.56;;;2.81;69.52
60061;BME280;45933;51.336;12.612;2023-01-25T00:59:29;101951.06;;;2.80;69.63
60061;BME280;45933;51.336;12.612;2023-01-25T01:01:57;101945.13;;;2.81;69.50
60061;BME280;45933;51.336;12.612;2023-01-25T01:04:22;101948.66;;;2.83;69.37
60061;BME280;45933;51.336;12.612;2023-01-25T01:06:52;101949.53;;;2.84;69.59
60061;BME280;45933;51.336;12.612;2023-01-25T01:09:21;101954.69;;;2.84;69.64
60061;BME280;45933;51.336;12.612;2023-01-25T01:11:47;101947.84;;;2.84;69.75
60061;BME280;45933;51.336;12.612;2023-01-25T01:14:12;101943.59;;;2.85;69.35
60061;BME280;45933;51.336;12.612;2023-01-25T01:16:38;101941.03;;;2.85;69.39
60061;BME280;45933;51.336;12.612;2023-01-25T01:19:04;101942.69;;;2.84;69.27
60061;BME280;45933;51.336;12.612;2023-01-25T01:21:29;101941.91;;;2.85;69.49
60061;BME280;45933;51.336;12.612;2023-01-25T01:23:55;101936.66;;;2.84;69.32
60061;BME280;45933;51.336;12.612;2023-01-25T01:26:23;101931.59;;;2.85;69.51
60061;BME280;45933;51.336;12.612;2023-01-25T01:28:48;101924.75;;;2.86;69.44
60061;BME280;45933;51.336;12.612;2023-01-25T01:31:16;101934.34;;;2.88;69.44
60061;BME280;45933;51.336;12.612;2023-01-25T01:33:42;101933.44;;;2.88;69.48
60061;BME280;45933;51.336;12.612;2023-01-25T01:36:08;101935.22;;;2.89;69.31
60061;BME280;45933;51.336;12.612;2023-01-25T01:38:34;101935.22;;;2.89;69.38
60061;BME280;45933;51.336;12.612;2023-01-25T01:40:59;101927.50;;;2.89;69.34
60061;BME280;45933;51.336;12.612;2023-01-25T01:43:28;101920.56;;;2.88;69.53
60061;BME280;45933;51.336;12.612;2023-01-25T01:45:58;101907.75;;;2.89;69.55
60061;BME280;45933;51.336;12.612;2023-01-25T01:49:05;101902.06;;;2.95;69.25
60061;BME280;45933;51.336;12.612;2023-01-25T01:51:55;101898.59;;;2.95;69.46
60061;BME280;45933;51.336;12.612;2023-01-25T01:54:38;101888.06;;;2.90;69.18
60061;BME280;45933;51.336;12.612;2023-01-25T01:57:14;101884.59;;;2.89;69.23
60061;BME280;45933;51.336;12.612;2023-01-25T01:59:56;101878.97;;;2.80;69.37
60061;BME280;45933;51.336;12.612;2023-01-25T02:02:24;101877.72;;;2.74;69.56
60061;BME280;45933;51.336;12.612;2023-01-25T02:04:53;101872.75;;;2.77;69.47
60061;BME280;45933;51.336;12.612;2023-01-25T02:07:31;101875.38;;;2.78;69.58
60061;BME280;45933;51.336;12.612;2023-01-25T02:09:58;101860.59;;;2.74;69.50
60061;BME280;45933;51.336;12.612;2023-01-25T02:12:27;101870.16;;;2.77;70.07
60061;BME280;45933;51.336;12.612;2023-01-25T02:14:56;101866.63;;;2.75;69.83
60061;BME280;45933;51.336;12.612;2023-01-25T02:17:27;101862.38;;;2.75;69.60
60061;BME280;45933;51.336;12.612;2023-01-25T02:22:21;101848.50;;;2.73;69.75
60061;BME280;45933;51.336;12.612;2023-01-25T02:24:59;101848.25;;;2.69;69.91
60061;BME280;45933;51.336;12.612;2023-01-25T02:27:29;101845.44;;;2.64;70.01
60061;BME280;45933;51.336;12.612;2023-01-25T02:29:54;101847.84;;;2.61;69.82
60061;BME280;45933;51.336;12.612;2023-01-25T02:32:19;101853.88;;;2.61;69.97
60061;BME280;45933;51.336;12.612;2023-01-25T02:34:45;101860.00;;;2.63;70.10
60061;BME280;45933;51.336;12.612;2023-01-25T02:37:14;101857.53;;;2.65;70.04
60061;BME280;45933;51.336;12.612;2023-01-25T02:39:40;101847.91;;;2.62;70.07
60061;BME280;45933;51.336;12.612;2023-01-25T02:42:06;101852.25;;;2.63;70.08
60061;BME280;45933;51.336;12.612;2023-01-25T02:44:31;101847.22;;;2.65;69.97
60061;BME280;45933;51.336;12.612;2023-01-25T02:46:57;101854.94;;;2.65;69.91
60061;BME280;45933;51.336;12.612;2023-01-25T02:49:23;101854.22;;;2.68;69.79
60061;BME280;45933;51.336;12.612;2023-01-25T02:51:51;101845.69;;;2.69;69.59
60061;BME280;45933;51.336;12.612;2023-01-25T02:54:20;101844.00;;;2.69;69.76
60061;BME280;45933;51.336;12.612;2023-01-25T02:56:46;101838.06;;;2.70;69.70
60061;BME280;45933;51.336;12.612;2023-01-25T02:59:11;101837.25;;;2.71;69.72
60061;BME280;45933;51.336;12.612;2023-01-25T03:01:38;101832.16;;;2.73;69.50
60061;BME280;45933;51.336;12.612;2023-01-25T03:04:04;101838.19;;;2.73;69.69
60061;BME280;45933;51.336;12.612;2023-01-25T03:06:30;101826.22;;;2.74;69.64
60061;BME280;45933;51.336;12.612;2023-01-25T03:08:56;101818.59;;;2.75;69.57
60061;BME280;45933;51.336;12.612;2023-01-25T03:11:21;101828.16;;;2.78;69.75
60061;BME280;45933;51.336;12.612;2023-01-25T03:13:47;101822.19;;;2.79;69.64
60061;BME280;45933;51.336;12.612;2023-01-25T03:16:12;101821.31;;;2.78;69.25
60061;BME280;45933;51.336;12.612;2023-01-25T03:18:39;101818.72;;;2.78;69.58
60061;BME280;45933;51.336;12.612;2023-01-25T03:24:00;101819.06;;;2.84;69.29
60061;BME280;45933;51.336;12.612;2023-01-25T03:26:26;101819.72;;;2.80;69.41
60061;BME280;45933;51.336;12.612;2023-01-25T03:28:52;101805.97;;;2.80;69.30
60061;BME280;45933;51.336;12.612;2023-01-25T03:31:17;101805.84;;;2.78;69.44
60061;BME280;45933;51.336;12.612;2023-01-25T03:33:43;101809.25;;;2.77;69.32
60061;BME280;45933;51.336;12.612;2023-01-25T03:36:09;101802.25;;;2.75;69.23
60061;BME280;45933;51.336;12.612;2023-01-25T03:38:35;101804.91;;;2.76;69.22
60061;BME280;45933;51.336;12.612;2023-01-25T03:41:01;101801.91;;;2.69;69.69
60061;BME280;45933;51.336;12.612;2023-01-25T03:43:27;101794.19;;;2.69;69.31
60061;BME280;45933;51.336;12.612;2023-01-25T03:45:54;101796.75;;;2.69;69.57
60061;BME280;45933;51.336;12.612;2023-01-25T03:48:21;101803.59;;;2.68;69.82
60061;BME280;45933;51.336;12.612;2023-01-25T03:50:51;101803.69;;;2.70;69.66
60061;BME280;45933;51.336;12.612;2023-01-25T03:53:17;101796.84;;;2.70;69.94
60061;BME280;45933;51.336;12.612;2023-01-25T03:56:09;101796.22;;;2.74;69.78
60061;BME280;45933;51.336;12.612;2023-01-25T03:58:37;101791.84;;;2.73;69.56
60061;BME280;45933;51.336;12.612;2023-01-25T04:01:04;101801.28;;;2.73;69.66
60061;BME280;45933;51.336;12.612;2023-01-25T04:03:30;101800.47;;;2.74;69.66
60061;BME280;45933;51.336;12.612;2023-01-25T04:05:56;101804.03;;;2.76;69.59
60061;BME280;45933;51.336;12.612;2023-01-25T04:08:22;101799.69;;;2.75;69.63
60061;BME280;45933;51.336;12.612;2023-01-25T04:10:50;101790.16;;;2.74;69.39
60061;BME280;45933;51.336;12.612;2023-01-25T04:13:16;101797.00;;;2.73;69.11
60061;BME280;45933;51.336;12.612;2023-01-25T04:15:41;101788.31;;;2.71;69.23
60061;BME280;45933;51.336;12.612;2023-01-25T04:18:07;101795.25;;;2.72;69.54
60061;BME280;45933;51.336;12.612;2023-01-25T04:20:32;101796.94;;;2.72;69.72
60061;BME280;45933;51.336;12.612;2023-01-25T04:22:57;101789.19;;;2.72;69.52
60061;BME280;45933;51.336;12.612;2023-01-25T04:25:23;101790.91;;;2.71;69.55
60061;BME280;45933;51.336;12.612;2023-01-25T04:27:49;101783.16;;;2.71;69.71
60061;BME280;45933;51.336;12.612;2023-01-25T04:30:14;101785.75;;;2.71;69.74
60061;BME280;45933;51.336;12.612;2023-01-25T04:32:39;101782.34;;;2.72;69.83
60061;BME280;45933;51.336;12.612;2023-01-25T04:35:05;101778.09;;;2.73;69.72
60061;BME280;45933;51.336;12.612;2023-01-25T04:37:30;101773.94;;;2.75;69.47
60061;BME280;45933;51.336;12.612;2023-01-25T04:39:56;101779.16;;;2.76;69.65
60061;BME280;45933;51.336;12.612;2023-01-25T04:42:21;101778.28;;;2.76;69.37
60061;BME280;45933;51.336;12.612;2023-01-25T04:44:46;101773.94;;;2.75;69.29
60061;BME280;45933;51.336;12.612;2023-01-25T04:47:11;101766.28;;;2.76;69.50
60061;BME280;45933;51.336;12.612;2023-01-25T04:49:37;101776.56;;;2.76;69.34
60061;BME280;45933;51.336;12.612;2023-01-25T04:52:02;101771.34;;;2.75;69.27
60061;BME280;45933;51.336;12.612;2023-01-25T04:54:28;101780.03;;;2.77;69.21
60061;BME280;45933;51.336;12.612;2023-01-25T04:56:53;101772.31;;;2.77;69.58
60061;BME280;45933;51.336;12.612;2023-01-25T04:59:18;101775.75;;;2.77;69.51
60061;BME280;45933;51.336;12.612;2023-01-25T05:01:43;101779.22;;;2.78;69.39
60061;BME280;45933;51.336;12.612;2023-01-25T05:04:09;101760.31;;;2.77;69.32
60061;BME280;45933;51.336;12.612;2023-01-25T05:06:34;101764.59;;;2.77;69.46
60061;BME280;45933;51.336;12.612;2023-01-25T05:08:59;101762.81;;;2.76;69.45
60061;BME280;45933;51.336;12.612;2023-01-25T05:11:25;101761.38;;;2.65;69.21
60061;BME280;45933;51.336;12.612;2023-01-25T05:13:50;101763.44;;;2.72;69.49
60061;BME280;45933;51.336;12.612;2023-01-25T05:16:16;101754.78;;;2.70;69.56
60061;BME280;45933;51.336;12.612;2023-01-25T05:18:42;101750.41;;;2.69;69.33
60061;BME280;45933;51.336;12.612;2023-01-25T05:21:07;101753.91;;;2.69;69.33
60061;BME280;45933;51.336;12.612;2023-01-25T05:23:52;101749.53;;;2.68;69.52
60061;BME280;45933;51.336;12.612;2023-01-25T05:26:18;101758.94;;;2.68;69.35
60061;BME280;45933;51.336;12.612;2023-01-25T05:29:02;101759.81;;;2.68;69.65
60061;BME280;45933;51.336;12.612;2023-01-25T05:31:27;101763.22;;;2.67;69.82
60061;BME280;45933;51.336;12.612;2023-01-25T05:33:52;101763.13;;;2.66;69.59
60061;BME280;45933;51.336;12.612;2023-01-25T05:36:17;101757.16;;;2.67;69.69
60061;BME280;45933;51.336;12.612;2023-01-25T05:38:43;101766.59;;;2.66;69.43
60061;BME280;45933;51.336;12.612;2023-01-25T05:41:08;101764.91;;;2.67;69.51
60061;BME280;45933;51.336;12.612;2023-01-25T05:43:33;101761.25;;;2.63;69.19
60061;BME280;45933;51.336;12.612;2023-01-25T05:45:58;101756.13;;;2.63;69.27
60061;BME280;45933;51.336;12.612;2023-01-25T05:48:24;101750.09;;;2.62;69.59
60061;BME280;45933;51.336;12.612;2023-01-25T05:50:49;101755.22;;;2.62;69.31
60061;BME280;45933;51.336;12.612;2023-01-25T05:53:15;101752.66;;;2.62;69.63
60061;BME280;45933;51.336;12.612;2023-01-25T05:55:40;101750.09;;;2.62;69.43
60061;BME280;45933;51.336;12.612;2023-01-25T05:58:05;101762.16;;;2.63;69.62
60061;BME280;45933;51.336;12.612;2023-01-25T06:00:30;101753.53;;;2.63;69.48
60061;BME280;45933;51.336;12.612;2023-01-25T06:02:59;101748.56;;;2.66;69.50
60061;BME280;45933;51.336;12.612;2023-01-25T06:05:24;101745.91;;;2.65;69.31
60061;BME280;45933;51.336;12.612;2023-01-25T06:07:49;101741.66;;;2.65;69.44
60061;BME280;45933;51.336;12.612;2023-01-25T06:10:15;101739.06;;;2.65;69.60
60061;BME280;45933;51.336;12.612;2023-01-25T06:12:40;101747.69;;;2.66;69.34
60061;BME280;45933;51.336;12.612;2023-01-25T06:15:06;101741.72;;;2.67;69.41
60061;BME280;45933;51.336;12.612;2023-01-25T06:17:31;101743.41;;;2.66;69.33
60061;BME280;45933;51.336;12.612;2023-01-25T06:19:56;101739.97;;;2.66;69.21
60061;BME280;45933;51.336;12.612;2023-01-25T06:22:22;101735.75;;;2.68;69.40
60061;BME280;45933;51.336;12.612;2023-01-25T06:24:47;101739.16;;;2.67;69.10
60061;BME280;45933;51.336;12.612;2023-01-25T06:27:12;101740.09;;;2.69;69.18
60061;BME280;45933;51.336;12.612;2023-01-25T06:29:37;101741.03;;;2.69;69.08
60061;BME280;45933;51.336;12.612;2023-01-25T06:32:03;101747.06;;;2.70;69.15
60061;BME280;45933;51.336;12.612;2023-01-25T06:34:28;101740.22;;;2.70;69.29
60061;BME280;45933;51.336;12.612;2023-01-25T06:36:54;101736.81;;;2.71;69.25
60061;BME280;45933;51.336;12.612;2023-01-25T06:39:19;101734.31;;;2.73;69.42
60061;BME280;45933;51.336;12.612;2023-01-25T06:41:45;101736.00;;;2.72;69.28
60061;BME280;45933;51.336;12.612;2023-01-25T06:44:11;101737.69;;;2.72;69.15
60061;BME280;45933;51.336;12.612;2023-01-25T06:46:36;101731.75;;;2.73;69.09
60061;BME280;45933;51.336;12.612;2023-01-25T06:49:01;101733.50;;;2.74;69.29
60061;BME280;45933;51.336;12.612;2023-01-25T06:51:28;101727.34;;;2.70;69.11
60061;BME280;45933;51.336;12.612;2023-01-25T06:53:53;101725.63;;;2.71;69.12
60061;BME280;45933;51.336;12.612;2023-01-25T06:56:21;101717.97;;;2.72;69.39
60061;BME280;45933;51.336;12.612;2023-01-25T06:58:47;101718.72;;;2.70;69.17
60061;BME280;45933;51.336;12.612;2023-01-25T07:01:21;101714.47;;;2.70;69.35
60061;BME280;45933;51.336;12.612;2023-01-25T07:03:51;101715.34;;;2.71;69.27
60061;BME280;45933;51.336;12.612;2023-01-25T07:06:17;101712.59;;;2.68;69.25
60061;BME280;45933;51.336;12.612;2023-01-25T07:08:43;101716.94;;;2.69;69.32
60061;BME280;45933;51.336;12.612;2023-01-25T07:11:10;101715.16;;;2.68;69.22
60061;BME280;45933;51.336;12.612;2023-01-25T07:13:38;101713.41;;;2.67;68.97
60061;BME280;45933;51.336;12.612;2023-01-25T07:16:06;101703.97;;;2.67;68.90
60061;BME280;45933;51.336;12.612;2023-01-25T07:18:33;101703.91;;;2.66;69.11
60061;BME280;45933;51.336;12.612;2023-01-25T07:21:15;101701.47;;;2.69;69.00
60061;BME280;45933;51.336;12.612;2023-01-25T07:23:42;101697.06;;;2.66;69.12
60061;BME280;45933;51.336;12.612;2023-01-25T07:28:46;101697.94;;;2.67;69.10
60061;BME280;45933;51.336;12.612;2023-01-25T07:31:12;101697.94;;;2.67;69.26
60061;BME280;45933;51.336;12.612;2023-01-25T07:33:37;101697.00;;;2.65;68.75
60061;BME280;45933;51.336;12.612;2023-01-25T07:36:04;101692.72;;;2.65;68.96
60061;BME280;45933;51.336;12.612;2023-01-25T07:38:30;101677.75;;;2.58;68.59
60061;BME280;45933;51.336;12.612;2023-01-25T07:40:56;101689.03;;;2.60;68.88
60061;BME280;45933;51.336;12.612;2023-01-25T07:43:22;101684.59;;;2.57;69.01
60061;BME280;45933;51.336;12.612;2023-01-25T07:45:47;101682.91;;;2.58;69.13
60061;BME280;45933;51.336;12.612;2023-01-25T07:48:14;101677.75;;;2.58;69.27
60061;BME280;45933;51.336;12.612;2023-01-25T07:50:40;101680.31;;;2.58;69.18
60061;BME280;45933;51.336;12.612;2023-01-25T07:53:06;101680.44;;;2.59;68.93
60061;BME280;45933;51.336;12.612;2023-01-25T07:55:31;101667.56;;;2.59;68.80
60061;BME280;45933;51.336;12.612;2023-01-25T07:57:57;101668.38;;;2.58;69.13
60061;BME280;45933;51.336;12.612;2023-01-25T08:00:22;101669.25;;;2.59;68.97
60061;BME280;45933;51.336;12.612;2023-01-25T08:02:51;101667.56;;;2.59;68.98
60061;BME280;45933;51.336;12.612;2023-01-25T08:05:16;101662.09;;;2.53;69.08
60061;BME280;45933;51.336;12.612;2023-01-25T08:07:42;101659.41;;;2.52;69.08
60061;BME280;45933;51.336;12.612;2023-01-25T08:10:08;101658.78;;;2.56;69.15
60061;BME280;45933;51.336;12.612;2023-01-25T08:12:33;101658.72;;;2.54;69.17
60061;BME280;45933;51.336;12.612;2023-01-25T08:14:59;101663.84;;;2.54;69.21
60061;BME280;45933;51.336;12.612;2023-01-25T08:17:24;101659.41;;;2.52;69.30
60061;BME280;45933;51.336;12.612;2023-01-25T08:19:58;101664.50;;;2.50;68.97
60061;BME280;45933;51.336;12.612;2023-01-25T08:22:24;101664.44;;;2.49;69.31
60061;BME280;45933;51.336;12.612;2023-01-25T08:24:50;101661.09;;;2.51;69.51
60061;BME280;45933;51.336;12.612;2023-01-25T08:27:16;101666.34;;;2.53;69.30
60061;BME280;45933;51.336;12.612;2023-01-25T08:29:41;101668.19;;;2.55;69.42
60061;BME280;45933;51.336;12.612;2023-01-25T08:32:06;101658.78;;;2.56;69.47
60061;BME280;45933;51.336;12.612;2023-01-25T08:34:33;101668.44;;;2.60;69.59
60061;BME280;45933;51.336;12.612;2023-01-25T08:36:58;101659.09;;;2.62;69.33
60061;BME280;45933;51.336;12.612;2023-01-25T08:39:24;101660.16;;;2.66;69.43
60061;BME280;45933;51.336;12.612;2023-01-25T08:41:49;101648.16;;;2.66;68.87
60061;BME280;45933;51.336;12.612;2023-01-25T08:44:14;101649.09;;;2.68;69.21
60061;BME280;45933;51.336;12.612;2023-01-25T08:46:40;101656.94;;;2.70;68.91
60061;BME280;45933;51.336;12.612;2023-01-25T08:49:05;101648.47;;;2.72;69.11
60061;BME280;45933;51.336;12.612;2023-01-25T08:51:32;101642.44;;;2.72;69.29
60061;BME280;45933;51.336;12.612;2023-01-25T08:54:06;101644.34;;;2.76;69.05
60061;BME280;45933;51.336;12.612;2023-01-25T08:56:32;101639.84;;;2.72;68.91
60061;BME280;45933;51.336;12.612;2023-01-25T08:58:57;101638.97;;;2.71;69.06
60061;BME280;45933;51.336;12.612;2023-01-25T09:01:22;101638.09;;;2.71;68.79
60061;BME280;45933;51.336;12.612;2023-01-25T09:03:49;101636.22;;;2.68;68.47
60061;BME280;45933;51.336;12.612;2023-01-25T09:06:15;101634.53;;;2.69;68.83
60061;BME280;45933;51.336;12.612;2023-01-25T09:08:41;101635.34;;;2.68;68.83
60061;BME280;45933;51.336;12.612;2023-01-25T09:11:11;101636.09;;;2.65;69.08
60061;BME280;45933;51.336;12.612;2023-01-25T09:13:37;101632.63;;;2.65;69.26
60061;BME280;45933;51.336;12.612;2023-01-25T09:16:05;101636.16;;;2.67;69.13
60061;BME280;45933;51.336;12.612;2023-01-25T09:18:31;101624.97;;;2.66;69.26
60061;BME280;45933;51.336;12.612;2023-01-25T09:20:57;101626.75;;;2.67;68.91
60061;BME280;45933;51.336;12.612;2023-01-25T09:23:23;101624.97;;;2.66;68.73
60061;BME280;45933;51.336;12.612;2023-01-25T09:25:55;101626.97;;;2.72;69.02
60061;BME280;45933;51.336;12.612;2023-01-25T09:28:21;101623.47;;;2.70;69.12
60061;BME280;45933;51.336;12.612;2023-01-25T09:30:53;101622.78;;;2.74;69.11
60061;BME280;45933;51.336;12.612;2023-01-25T09:33:19;101627.78;;;2.71;68.55
60061;BME280;45933;51.336;12.612;2023-01-25T09:35:48;101628.66;;;2.71;68.84
60061;BME280;45933;51.336;12.612;2023-01-25T09:38:20;101620.13;;;2.72;68.87
60061;BME280;45933;51.336;12.612;2023-01-25T09:43:55;101615.88;;;2.73;68.88
60061;BME280;45933;51.336;12.612;2023-01-25T09:46:44;101614.97;;;2.72;68.98
60061;BME280;45933;51.336;12.612;2023-01-25T09:54:45;101602.03;;;2.71;69.08
60061;BME280;45933;51.336;12.612;2023-01-25T09:57:18;101597.84;;;2.73;69.05
60061;BME280;45933;51.336;12.612;2023-01-25T09:59:46;101597.59;;;2.68;68.52
60061;BME280;45933;51.336;12.612;2023-01-25T10:04:51;101596.97;;;2.72;68.27
60061;BME280;45933;51.336;12.612;2023-01-25T10:07:24;101597.03;;;2.74;68.25
60061;BME280;45933;51.336;12.612;2023-01-25T10:10:03;101592.94;;;2.77;68.63
60061;BME280;45933;51.336;12.612;2023-01-25T10:12:35;101588.59;;;2.76;68.38
60061;BME280;45933;51.336;12.612;2023-01-25T10:15:01;101585.94;;;2.75;68.42
60061;BME280;45933;51.336;12.612;2023-01-25T10:17:41;101580.03;;;2.77;68.23
60061;BME280;45933;51.336;12.612;2023-01-25T10:20:27;101576.88;;;2.83;68.29
60061;BME280;45933;51.336;12.612;2023-01-25T10:26:00;101570.69;;;2.79;68.18
60061;BME280;45933;51.336;12.612;2023-01-25T10:28:33;101567.25;;;2.79;68.27
60061;BME280;45933;51.336;12.612;2023-01-25T10:31:16;101560.41;;;2.79;68.17
60061;BME280;45933;51.336;12.612;2023-01-25T10:33:43;101559.44;;;2.77;68.13
60061;BME280;45933;51.336;12.612;2023-01-25T10:36:15;101560.97;;;2.74;68.15
60061;BME280;45933;51.336;12.612;2023-01-25T10:38:44;101552.38;;;2.73;68.31
60061;BME280;45933;51.336;12.612;2023-01-25T10:41:35;101546.06;;;2.84;68.12
60061;BME280;45933;51.336;12.612;2023-01-25T10:44:02;101543.94;;;2.76;68.51
60061;BME280;45933;51.336;12.612;2023-01-25T10:49:41;101534.56;;;2.78;68.22
60061;BME280;45933;51.336;12.612;2023-01-25T10:52:19;101535.75;;;2.84;68.61
60061;BME280;45933;51.336;12.612;2023-01-25T10:54:45;101531.28;;;2.80;68.29
60061;BME280;45933;51.336;12.612;2023-01-25T10:57:17;101523.63;;;2.82;68.49
60061;BME280;45933;51.336;12.612;2023-01-25T10:59:49;101514.13;;;2.81;68.23
60061;BME280;45933;51.336;12.612;2023-01-25T11:02:35;101519.66;;;2.88;68.53
60061;BME280;45933;51.336;12.612;2023-01-25T11:07:42;101509.88;;;2.81;68.00
60061;BME280;45933;51.336;12.612;2023-01-25T11:15:37;101505.53;;;2.80;68.20
60061;BME280;45933;51.336;12.612;2023-01-25T11:18:11;101489.38;;;2.84;68.55
60061;BME280;45933;51.336;12.612;2023-01-25T11:20:37;101482.34;;;2.80;68.33
60061;BME280;45933;51.336;12.612;2023-01-25T11:23:15;101481.53;;;2.81;68.56
60061;BME280;45933;51.336;12.612;2023-01-25T11:25:43;101481.59;;;2.83;68.73
60061;BME280;45933;51.336;12.612;2023-01-25T11:30:35;101465.34;;;2.84;68.87
60061;BME280;45933;51.336;12.612;2023-01-25T11:33:00;101465.34;;;2.84;68.50
60061;BME280;45933;51.336;12.612;2023-01-25T11:35:30;101455.34;;;2.90;68.73
60061;BME280;45933;51.336;12.612;2023-01-25T11:38:11;101462.09;;;2.88;68.59
60061;BME280;45933;51.336;12.612;2023-01-25T11:40:46;101455.47;;;2.93;68.54
60061;BME280;45933;51.336;12.612;2023-01-25T11:43:20;101455.41;;;2.92;68.34
60061;BME280;45933;51.336;12.612;2023-01-25T11:48:49;101440.41;;;2.83;68.28
60061;BME280;45933;51.336;12.612;2023-01-25T11:51:24;101436.06;;;2.82;67.74
60061;BME280;45933;51.336;12.612;2023-01-25T11:54:23;101430.75;;;2.79;68.18
60061;BME280;45933;51.336;12.612;2023-01-25T11:56:59;101422.97;;;2.77;68.13
60061;BME280;45933;51.336;12.612;2023-01-25T11:59:59;101421.56;;;2.84;68.04
60061;BME280;45933;51.336;12.612;2023-01-25T12:05:29;101412.81;;;2.80;68.07
60061;BME280;45933;51.336;12.612;2023-01-25T12:08:28;101406.56;;;2.75;67.96
60061;BME280;45933;51.336;12.612;2023-01-25T12:11:04;101397.00;;;2.73;67.90
60061;BME280;45933;51.336;12.612;2023-01-25T12:14:04;101395.41;;;2.75;67.91
60061;BME280;45933;51.336;12.612;2023-01-25T12:16:56;101388.34;;;2.71;68.05
60061;BME280;45933;51.336;12.612;2023-01-25T12:19:31;101377.16;;;2.70;68.22
60061;BME280;45933;51.336;12.612;2023-01-25T12:22:14;101378.91;;;2.71;68.02
60061;BME280;45933;51.336;12.612;2023-01-25T12:28:01;101370.38;;;2.72;68.12
60061;BME280;45933;51.336;12.612;2023-01-25T12:30:38;101376.69;;;2.79;68.49
60061;BME280;45933;51.336;12.612;2023-01-25T12:33:20;101369.03;;;2.80;68.02
60061;BME280;45933;51.336;12.612;2023-01-25T12:35:55;101364.69;;;2.79;67.71
60061;BME280;45933;51.336;12.612;2023-01-25T12:38:32;101357.06;;;2.81;67.48
60061;BME280;45933;51.336;12.612;2023-01-25T12:41:04;101354.47;;;2.81;67.56
60061;BME280;45933;51.336;12.612;2023-01-25T12:43:38;101346.00;;;2.83;67.72
60061;BME280;45933;51.336;12.612;2023-01-25T12:46:17;101346.88;;;2.84;67.61
60061;BME280;45933;51.336;12.612;2023-01-25T12:48:49;101336.44;;;2.81;67.10
60061;BME280;45933;51.336;12.612;2023-01-25T12:51:17;101337.25;;;2.80;67.14
60061;BME280;45933;51.336;12.612;2023-01-25T12:53:46;101326.97;;;2.80;67.11
60061;BME280;45933;51.336;12.612;2023-01-25T12:58:56;101327.31;;;2.87;67.23
60061;BME280;45933;51.336;12.612;2023-01-25T13:01:37;101321.13;;;2.84;66.77
60061;BME280;45933;51.336;12.612;2023-01-25T13:07:28;101310.69;;;3.00;66.80
60061;BME280;45933;51.336;12.612;2023-01-25T13:10:07;101308.81;;;2.96;66.79
60061;BME280;45933;51.336;12.612;2023-01-25T13:13:18;101286.91;;;3.06;67.06
60061;BME280;45933;51.336;12.612;2023-01-25T13:15:45;101279.66;;;2.97;67.07
60061;BME280;45933;51.336;12.612;2023-01-25T13:21:08;101272.97;;;3.01;66.58
60061;BME280;45933;51.336;12.612;2023-01-25T13:23:40;101266.03;;;3.00;66.43
60061;BME280;45933;51.336;12.612;2023-01-25T13:28:56;101278.16;;;3.02;66.98
60061;BME280;45933;51.336;12.612;2023-01-25T13:34:12;101267.91;;;3.04;66.54
60061;BME280;45933;51.336;12.612;2023-01-25T13:42:04;101247.38;;;3.05;66.95
60061;BME280;45933;51.336;12.612;2023-01-25T13:44:43;101248.28;;;3.06;66.76
60061;BME280;45933;51.336;12.612;2023-01-25T13:47:11;101248.28;;;3.06;66.94
60061;BME280;45933;51.336;12.612;2023-01-25T13:52:20;101234.44;;;3.04;66.50
60061;BME280;45933;51.336;12.612;2023-01-25T13:54:47;101229.22;;;3.02;66.02
60061;BME280;45933;51.336;12.612;2023-01-25T13:57:24;101227.31;;;2.98;66.31
60061;BME280;45933;51.336;12.612;2023-01-25T14:02:28;101223.66;;;2.93;66.38
60061;BME280;45933;51.336;12.612;2023-01-25T14:04:54;101221.91;;;2.92;66.63
60061;BME280;45933;51.336;12.612;2023-01-25T14:07:29;101218.56;;;2.95;66.95
60061;BME280;45933;51.336;12.612;2023-01-25T14:10:05;101219.28;;;2.91;66.55